sensor_id;sensor_type;location;lat;lon;timestamp;pressure;altitude;pressure_sealevel;temperature;humidity
44385;BME280;30101;32.778;34.994;2023-01-30T00:04:42;97386.19;;;13.41;68.38
44385;BME280;30101;32.778;34.994;2023-01-30T00:09:45;97382.47;;;13.42;67.97
44385;BME280;30101;32.778;34.994;2023-01-30T00:14:49;97379.31;;;13.45;68.47
44385;BME280;30101;32.778;34.994;2023-01-30T00:19:52;97369.88;;;13.43;68.93
44385;BME280;30101;32.778;34.994;2023-01-30T00:24:55;97372.44;;;13.38;69.27
44385;BME280;30101;32.778;34.994;2023-01-30T00:29:59;97374.66;;;13.41;69.37
44385;BME280;30101;32.778;34.994;2023-01-30T00:35:06;97372.78;;;13.41;69.62
44385;BME280;30101;32.778;34.994;2023-01-30T00:40:10;97363.00;;;13.35;69.49
44385;BME280;30101;32.778;34.994;2023-01-30T00:45:14;97369.06;;;13.31;69.79
44385;BME280;30101;32.778;34.994;2023-01-30T00:50:19;97366.75;;;13.34;69.73
44385;BME280;30101;32.778;34.994;2023-01-30T00:55:22;97376.41;;;13.35;69.42
44385;BME280;30101;32.778;34.994;2023-01-30T01:00:25;97377.22;;;13.36;69.39
44385;BME280;30101;32.778;34.994;2023-01-30T01:05:29;97369.88;;;13.31;69.73
44385;BME280;30101;32.778;34.994;2023-01-30T01:10:33;97387.16;;;13.23;70.13
44385;BME280;30101;32.778;34.994;2023-01-30T01:15:38;97382.16;;;13.27;69.91
44385;BME280;30101;32.778;34.994;2023-01-30T01:20:42;97367.00;;;13.33;69.99
44385;BME280;30101;32.778;34.994;2023-01-30T01:25:45;97360.09;;;13.25;69.66
44385;BME280;30101;32.778;34.994;2023-01-30T01:30:48;97343.91;;;13.20;70.12
44385;BME280;30101;32.778;34.994;2023-01-30T01:35:56;97362.91;;;13.18;70.13
44385;BME280;30101;32.778;34.994;2023-01-30T01:40:59;97367.81;;;13.21;70.37
44385;BME280;30101;32.778;34.994;2023-01-30T01:46:17;97370.03;;;13.25;70.01
44385;BME280;30101;32.778;34.994;2023-01-30T01:51:30;97351.50;;;13.23;70.40
44385;BME280;30101;32.778;34.994;2023-01-30T01:56:37;97344.50;;;13.22;70.32
44385;BME280;30101;32.778;34.994;2023-01-30T02:01:42;97350.44;;;13.24;70.42
44385;BME280;30101;32.778;34.994;2023-01-30T02:06:46;97341.34;;;13.25;70.37
44385;BME280;30101;32.778;34.994;2023-01-30T02:11:55;97356.97;;;13.28;70.53
44385;BME280;30101;32.778;34.994;2023-01-30T02:17:00;97336.78;;;13.26;70.84
44385;BME280;30101;32.778;34.994;2023-01-30T02:33:14;97346.00;;;13.06;70.55
44385;BME280;30101;32.778;34.994;2023-01-30T02:38:37;97350.44;;;13.12;70.47
44385;BME280;30101;32.778;34.994;2023-01-30T02:48:56;97348.09;;;13.16;70.61
44385;BME280;30101;32.778;34.994;2023-01-30T02:54:04;97337.28;;;13.11;70.67
44385;BME280;30101;32.778;34.994;2023-01-30T02:59:07;97344.38;;;13.05;70.91
44385;BME280;30101;32.778;34.994;2023-01-30T03:20:13;97356.88;;;13.23;70.59
44385;BME280;30101;32.778;34.994;2023-01-30T03:25:20;97364.34;;;13.21;70.97
44385;BME280;30101;32.778;34.994;2023-01-30T03:30:25;97367.94;;;13.27;70.74
44385;BME280;30101;32.778;34.994;2023-01-30T03:35:37;97376.19;;;13.25;70.59
44385;BME280;30101;32.778;34.994;2023-01-30T03:40:41;97365.34;;;13.20;70.87
44385;BME280;30101;32.778;34.994;2023-01-30T03:45:45;97376.19;;;13.13;71.03
44385;BME280;30101;32.778;34.994;2023-01-30T03:50:48;97370.72;;;13.08;71.01
44385;BME280;30101;32.778;34.994;2023-01-30T03:55:53;97375.28;;;12.96;71.17
44385;BME280;30101;32.778;34.994;2023-01-30T04:01:01;97376.44;;;12.88;71.17
44385;BME280;30101;32.778;34.994;2023-01-30T04:06:05;97370.63;;;12.80;71.13
44385;BME280;30101;32.778;34.994;2023-01-30T04:11:09;97371.78;;;12.72;71.21
44385;BME280;30101;32.778;34.994;2023-01-30T04:16:24;97380.19;;;12.64;71.08
44385;BME280;30101;32.778;34.994;2023-01-30T04:21:46;97385.19;;;12.60;71.60
44385;BME280;30101;32.778;34.994;2023-01-30T04:26:49;97381.94;;;12.58;70.81
44385;BME280;30101;32.778;34.994;2023-01-30T04:31:52;97381.56;;;12.55;70.84
44385;BME280;30101;32.778;34.994;2023-01-30T04:37:00;97378.31;;;12.53;71.10
44385;BME280;30101;32.778;34.994;2023-01-30T04:42:05;97371.53;;;12.50;71.12
44385;BME280;30101;32.778;34.994;2023-01-30T04:47:16;97375.75;;;12.46;71.33
44385;BME280;30101;32.778;34.994;2023-01-30T04:52:19;97380.19;;;12.52;71.35
44385;BME280;30101;32.778;34.994;2023-01-30T04:57:23;97371.34;;;12.52;71.68
44385;BME280;30101;32.778;34.994;2023-01-30T05:02:26;97379.38;;;12.52;71.02
44385;BME280;30101;32.778;34.994;2023-01-30T05:07:29;97387.41;;;12.52;71.05
44385;BME280;30101;32.778;34.994;2023-01-30T05:12:32;97389.50;;;12.61;70.53
44385;BME280;30101;32.778;34.994;2023-01-30T05:17:35;97390.88;;;12.76;70.75
44385;BME280;30101;32.778;34.994;2023-01-30T05:22:39;97395.91;;;12.84;70.78
44385;BME280;30101;32.778;34.994;2023-01-30T05:27:42;97393.44;;;12.94;70.79
44385;BME280;30101;32.778;34.994;2023-01-30T05:32:45;97397.28;;;13.10;70.60
44385;BME280;30101;32.778;34.994;2023-01-30T05:37:49;97408.47;;;13.30;70.62
44385;BME280;30101;32.778;34.994;2023-01-30T05:42:53;97404.03;;;13.47;70.40
44385;BME280;30101;32.778;34.994;2023-01-30T05:47:56;97425.31;;;13.66;70.54
44385;BME280;30101;32.778;34.994;2023-01-30T05:53:04;97424.50;;;13.94;69.91
44385;BME280;30101;32.778;34.994;2023-01-30T05:58:08;97414.59;;;14.23;70.04
44385;BME280;30101;32.778;34.994;2023-01-30T06:03:12;97417.03;;;14.53;69.71
44385;BME280;30101;32.778;34.994;2023-01-30T06:08:15;97428.00;;;14.68;69.02
44385;BME280;30101;32.778;34.994;2023-01-30T06:13:18;97426.22;;;14.57;69.21
44385;BME280;30101;32.778;34.994;2023-01-30T06:18:22;97429.63;;;14.69;68.83
44385;BME280;30101;32.778;34.994;2023-01-30T06:23:26;97432.81;;;15.38;67.05
44385;BME280;30101;32.778;34.994;2023-01-30T06:28:29;97416.63;;;16.53;64.21
44385;BME280;30101;32.778;34.994;2023-01-30T06:33:32;97427.03;;;17.51;61.89
44385;BME280;30101;32.778;34.994;2023-01-30T06:38:35;97425.69;;;17.59;61.40
44385;BME280;30101;32.778;34.994;2023-01-30T06:43:40;97428.69;;;17.10;62.92
44385;BME280;30101;32.778;34.994;2023-01-30T06:48:44;97421.06;;;16.37;64.60
44385;BME280;30101;32.778;34.994;2023-01-30T06:53:47;97428.81;;;16.07;65.95
44385;BME280;30101;32.778;34.994;2023-01-30T06:58:50;97431.78;;;15.83;65.72
44385;BME280;30101;32.778;34.994;2023-01-30T07:03:53;97428.66;;;15.91;66.19
44385;BME280;30101;32.778;34.994;2023-01-30T07:08:56;97435.13;;;15.90;65.97
44385;BME280;30101;32.778;34.994;2023-01-30T07:13:59;97428.03;;;15.62;66.02
44385;BME280;30101;32.778;34.994;2023-01-30T07:19:02;97445.09;;;15.51;66.39
44385;BME280;30101;32.778;34.994;2023-01-30T07:24:06;97437.44;;;15.43;66.55
44385;BME280;30101;32.778;34.994;2023-01-30T07:29:10;97436.91;;;15.41;66.42
44385;BME280;30101;32.778;34.994;2023-01-30T07:34:13;97430.63;;;15.35;66.49
44385;BME280;30101;32.778;34.994;2023-01-30T07:39:16;97414.66;;;15.29;67.03
44385;BME280;30101;32.778;34.994;2023-01-30T07:44:20;97411.78;;;15.35;66.74
44385;BME280;30101;32.778;34.994;2023-01-30T07:49:23;97415.94;;;15.43;66.83
44385;BME280;30101;32.778;34.994;2023-01-30T07:54:26;97399.72;;;15.60;65.84
44385;BME280;30101;32.778;34.994;2023-01-30T07:59:29;97394.56;;;16.02;64.87
44385;BME280;30101;32.778;34.994;2023-01-30T08:04:32;97389.03;;;16.41;64.60
44385;BME280;30101;32.778;34.994;2023-01-30T08:09:35;97406.34;;;16.50;64.22
44385;BME280;30101;32.778;34.994;2023-01-30T08:14:39;97392.88;;;16.50;63.77
44385;BME280;30101;32.778;34.994;2023-01-30T08:19:42;97396.00;;;16.37;63.87
44385;BME280;30101;32.778;34.994;2023-01-30T08:24:45;97413.59;;;16.17;64.15
44385;BME280;30101;32.778;34.994;2023-01-30T08:29:49;97413.38;;;16.24;64.05
44385;BME280;30101;32.778;34.994;2023-01-30T08:34:52;97406.00;;;16.14;63.50
44385;BME280;30101;32.778;34.994;2023-01-30T08:39:55;97394.53;;;15.97;63.72
44385;BME280;30101;32.778;34.994;2023-01-30T08:44:58;97390.00;;;16.03;63.42
44385;BME280;30101;32.778;34.994;2023-01-30T08:50:03;97403.22;;;16.04;63.07
44385;BME280;30101;32.778;34.994;2023-01-30T08:55:07;97394.69;;;15.85;62.81
44385;BME280;30101;32.778;34.994;2023-01-30T09:00:10;97381.09;;;16.02;62.04
44385;BME280;30101;32.778;34.994;2023-01-30T09:05:14;97373.50;;;15.94;61.30
44385;BME280;30101;32.778;34.994;2023-01-30T09:10:17;97366.13;;;15.84;61.28
44385;BME280;30101;32.778;34.994;2023-01-30T09:15:21;97371.00;;;15.87;60.82
44385;BME280;30101;32.778;34.994;2023-01-30T09:20:26;97359.69;;;15.85;60.88
44385;BME280;30101;32.778;34.994;2023-01-30T09:25:29;97347.66;;;15.71;60.29
44385;BME280;30101;32.778;34.994;2023-01-30T09:30:33;97351.72;;;15.52;60.69
44385;BME280;30101;32.778;34.994;2023-01-30T09:35:37;97345.84;;;15.55;60.80
44385;BME280;30101;32.778;34.994;2023-01-30T09:40:45;97334.44;;;15.91;60.19
44385;BME280;30101;32.778;34.994;2023-01-30T09:46:01;97333.44;;;16.03;59.81
44385;BME280;30101;32.778;34.994;2023-01-30T09:51:13;97313.75;;;15.70;59.56
44385;BME280;30101;32.778;34.994;2023-01-30T09:56:18;97315.69;;;15.75;60.70
44385;BME280;30101;32.778;34.994;2023-01-30T10:12:32;97297.91;;;15.52;61.98
44385;BME280;30101;32.778;34.994;2023-01-30T10:29:02;97281.56;;;15.80;61.47
44385;BME280;30101;32.778;34.994;2023-01-30T10:45:08;97277.25;;;15.79;61.73
44385;BME280;30101;32.778;34.994;2023-01-30T10:50:18;97269.16;;;15.79;61.60
44385;BME280;30101;32.778;34.994;2023-01-30T10:55:33;97272.78;;;15.95;60.80
44385;BME280;30101;32.778;34.994;2023-01-30T11:01:04;97268.47;;;15.94;60.85
44385;BME280;30101;32.778;34.994;2023-01-30T11:06:14;97262.19;;;15.83;60.99
44385;BME280;30101;32.778;34.994;2023-01-30T11:11:27;97256.56;;;15.85;61.03
44385;BME280;30101;32.778;34.994;2023-01-30T11:16:39;97249.78;;;16.09;60.76
44385;BME280;30101;32.778;34.994;2023-01-30T11:21:50;97244.84;;;16.01;60.67
44385;BME280;30101;32.778;34.994;2023-01-30T11:26:55;97242.09;;;15.91;60.93
44385;BME280;30101;32.778;34.994;2023-01-30T11:32:03;97232.16;;;15.97;60.97
44385;BME280;30101;32.778;34.994;2023-01-30T11:37:24;97231.53;;;15.89;60.95
44385;BME280;30101;32.778;34.994;2023-01-30T11:42:30;97220.53;;;15.91;60.64
44385;BME280;30101;32.778;34.994;2023-01-30T11:47:34;97217.00;;;15.85;60.78
44385;BME280;30101;32.778;34.994;2023-01-30T11:52:37;97211.47;;;15.70;60.64
44385;BME280;30101;32.778;34.994;2023-01-30T11:57:47;97208.84;;;15.48;60.81
44385;BME280;30101;32.778;34.994;2023-01-30T12:02:53;97210.59;;;15.37;61.48
44385;BME280;30101;32.778;34.994;2023-01-30T12:13:23;97209.78;;;15.37;61.72
44385;BME280;30101;32.778;34.994;2023-01-30T12:18:29;97208.97;;;15.36;61.06
44385;BME280;30101;32.778;34.994;2023-01-30T12:29:13;97219.03;;;15.46;60.47
44385;BME280;30101;32.778;34.994;2023-01-30T12:34:22;97214.22;;;15.48;60.07
44385;BME280;30101;32.778;34.994;2023-01-30T12:44:49;97219.22;;;15.39;60.27
44385;BME280;30101;32.778;34.994;2023-01-30T13:06:56;97232.72;;;15.67;60.23
44385;BME280;30101;32.778;34.994;2023-01-30T13:28:15;97213.94;;;15.50;59.26
44385;BME280;30101;32.778;34.994;2023-01-30T13:33:35;97213.66;;;15.46;59.65
44385;BME280;30101;32.778;34.994;2023-01-30T13:44:05;97214.25;;;15.53;59.37
44385;BME280;30101;32.778;34.994;2023-01-30T13:49:21;97216.91;;;15.48;59.48
44385;BME280;30101;32.778;34.994;2023-01-30T14:00:08;97215.22;;;15.15;59.58
44385;BME280;30101;32.778;34.994;2023-01-30T14:10:56;97203.63;;;15.15;59.42
44385;BME280;30101;32.778;34.994;2023-01-30T14:16:05;97205.22;;;15.10;59.19
44385;BME280;30101;32.778;34.994;2023-01-30T14:21:22;97216.97;;;15.04;59.47
44385;BME280;30101;32.778;34.994;2023-01-30T14:31:52;97206.19;;;14.77;59.40
44385;BME280;30101;32.778;34.994;2023-01-30T14:36:56;97198.59;;;14.74;59.36
44385;BME280;30101;32.778;34.994;2023-01-30T14:42:20;97200.75;;;14.72;59.58
44385;BME280;30101;32.778;34.994;2023-01-30T14:47:24;97203.25;;;14.79;59.31
44385;BME280;30101;32.778;34.994;2023-01-30T14:52:53;97199.88;;;14.67;59.86
44385;BME280;30101;32.778;34.994;2023-01-30T14:58:00;97196.97;;;14.51;60.00
44385;BME280;30101;32.778;34.994;2023-01-30T15:03:17;97194.59;;;14.38;60.42
44385;BME280;30101;32.778;34.994;2023-01-30T15:08:25;97199.09;;;14.32;60.71
44385;BME280;30101;32.778;34.994;2023-01-30T15:34:31;97208.25;;;13.81;61.47
44385;BME280;30101;32.778;34.994;2023-01-30T15:39:34;97202.66;;;13.83;61.10
44385;BME280;30101;32.778;34.994;2023-01-30T15:50:04;97218.66;;;13.94;60.98
44385;BME280;30101;32.778;34.994;2023-01-30T16:00:30;97211.53;;;13.83;61.43
44385;BME280;30101;32.778;34.994;2023-01-30T16:05:36;97209.66;;;13.67;61.56
44385;BME280;30101;32.778;34.994;2023-01-30T16:10:45;97207.94;;;13.61;61.40
44385;BME280;30101;32.778;34.994;2023-01-30T16:16:01;97211.59;;;13.55;61.75
44385;BME280;30101;32.778;34.994;2023-01-30T16:21:15;97204.91;;;13.40;62.27
44385;BME280;30101;32.778;34.994;2023-01-30T16:26:21;97202.28;;;13.29;62.72
44385;BME280;30101;32.778;34.994;2023-01-30T16:31:30;97198.47;;;13.13;63.34
44385;BME280;30101;32.778;34.994;2023-01-30T16:36:38;97185.50;;;12.93;63.91
44385;BME280;30101;32.778;34.994;2023-01-30T16:41:42;97191.38;;;12.78;64.12
44385;BME280;30101;32.778;34.994;2023-01-30T16:52:20;97202.38;;;12.65;64.63
44385;BME280;30101;32.778;34.994;2023-01-30T16:57:38;97218.44;;;12.65;64.53
44385;BME280;30101;32.778;34.994;2023-01-30T17:02:49;97218.69;;;12.63;64.32
44385;BME280;30101;32.778;34.994;2023-01-30T17:07:54;97212.16;;;12.59;64.39
44385;BME280;30101;32.778;34.994;2023-01-30T17:12:58;97213.31;;;12.63;64.49
44385;BME280;30101;32.778;34.994;2023-01-30T17:18:04;97207.47;;;12.66;64.75
44385;BME280;30101;32.778;34.994;2023-01-30T17:23:17;97215.63;;;12.72;64.35
44385;BME280;30101;32.778;34.994;2023-01-30T17:28:22;97218.41;;;12.77;64.76
44385;BME280;30101;32.778;34.994;2023-01-30T17:33:26;97215.13;;;12.86;64.44
44385;BME280;30101;32.778;34.994;2023-01-30T17:38:30;97228.03;;;12.89;64.60
44385;BME280;30101;32.778;34.994;2023-01-30T17:43:33;97233.53;;;12.83;64.92
44385;BME280;30101;32.778;34.994;2023-01-30T17:48:37;97230.50;;;12.79;65.01
44385;BME280;30101;32.778;34.994;2023-01-30T17:53:40;97236.34;;;12.76;65.35
44385;BME280;30101;32.778;34.994;2023-01-30T17:58:43;97223.28;;;12.80;65.05
44385;BME280;30101;32.778;34.994;2023-01-30T18:03:47;97227.59;;;12.81;65.26
44385;BME280;30101;32.778;34.994;2023-01-30T18:08:50;97230.25;;;12.81;65.25
44385;BME280;30101;32.778;34.994;2023-01-30T18:13:54;97227.84;;;12.79;65.54
44385;BME280;30101;32.778;34.994;2023-01-30T18:19:08;97225.63;;;12.76;65.59
44385;BME280;30101;32.778;34.994;2023-01-30T18:24:13;97224.91;;;12.81;65.82
44385;BME280;30101;32.778;34.994;2023-01-30T18:29:22;97225.41;;;12.78;65.91
44385;BME280;30101;32.778;34.994;2023-01-30T18:34:25;97220.59;;;12.80;65.88
44385;BME280;30101;32.778;34.994;2023-01-30T18:39:29;97202.06;;;12.90;65.74
44385;BME280;30101;32.778;34.994;2023-01-30T18:44:32;97202.72;;;12.97;65.72
44385;BME280;30101;32.778;34.994;2023-01-30T18:49:35;97187.22;;;12.99;65.50
44385;BME280;30101;32.778;34.994;2023-01-30T18:54:38;97186.03;;;13.07;65.49
44385;BME280;30101;32.778;34.994;2023-01-30T18:59:41;97185.81;;;13.08;65.20
44385;BME280;30101;32.778;34.994;2023-01-30T19:04:45;97184.09;;;13.02;65.63
44385;BME280;30101;32.778;34.994;2023-01-30T19:09:48;97178.88;;;12.95;65.48
44385;BME280;30101;32.778;34.994;2023-01-30T19:14:52;97164.66;;;12.95;65.18
44385;BME280;30101;32.778;34.994;2023-01-30T19:19:56;97171.38;;;12.98;65.09
44385;BME280;30101;32.778;34.994;2023-01-30T19:25:06;97164.59;;;13.07;64.57
44385;BME280;30101;32.778;34.994;2023-01-30T19:30:10;97171.31;;;13.21;64.20
44385;BME280;30101;32.778;34.994;2023-01-30T19:35:14;97181.09;;;13.15;63.99
44385;BME280;30101;32.778;34.994;2023-01-30T19:40:18;97214.72;;;12.66;65.81
44385;BME280;30101;32.778;34.994;2023-01-30T19:45:22;97225.84;;;11.57;68.59
44385;BME280;30101;32.778;34.994;2023-01-30T19:50:27;97217.03;;;10.97;69.57
44385;BME280;30101;32.778;34.994;2023-01-30T19:55:33;97200.41;;;10.46;71.37
44385;BME280;30101;32.778;34.994;2023-01-30T20:00:37;97186.34;;;10.14;71.50
44385;BME280;30101;32.778;34.994;2023-01-30T20:05:43;97181.03;;;10.14;71.74
44385;BME280;30101;32.778;34.994;2023-01-30T20:10:46;97166.88;;;10.14;71.55
44385;BME280;30101;32.778;34.994;2023-01-30T20:15:49;97170.03;;;10.22;71.56
44385;BME280;30101;32.778;34.994;2023-01-30T20:20:52;97172.72;;;10.22;71.11
44385;BME280;30101;32.778;34.994;2023-01-30T20:25:55;97165.94;;;10.26;71.95
44385;BME280;30101;32.778;34.994;2023-01-30T20:30:59;97165.47;;;10.30;72.04
44385;BME280;30101;32.778;34.994;2023-01-30T20:36:05;97158.09;;;10.32;72.31
44385;BME280;30101;32.778;34.994;2023-01-30T20:41:20;97151.72;;;10.33;72.05
44385;BME280;30101;32.778;34.994;2023-01-30T20:46:29;97156.38;;;10.37;72.88
44385;BME280;30101;32.778;34.994;2023-01-30T20:51:34;97156.75;;;10.41;72.68
44385;BME280;30101;32.778;34.994;2023-01-30T20:56:43;97152.34;;;10.46;73.30
44385;BME280;30101;32.778;34.994;2023-01-30T21:01:49;97150.28;;;10.48;73.20
44385;BME280;30101;32.778;34.994;2023-01-30T21:06:52;97145.66;;;10.56;73.27
44385;BME280;30101;32.778;34.994;2023-01-30T21:11:56;97145.09;;;10.53;73.00
44385;BME280;30101;32.778;34.994;2023-01-30T21:16:59;97133.16;;;10.56;73.61
44385;BME280;30101;32.778;34.994;2023-01-30T21:22:03;97119.94;;;10.61;73.49
44385;BME280;30101;32.778;34.994;2023-01-30T21:27:07;97121.34;;;10.64;73.49
44385;BME280;30101;32.778;34.994;2023-01-30T21:32:11;97110.44;;;10.65;73.92
44385;BME280;30101;32.778;34.994;2023-01-30T21:37:14;97094.47;;;10.77;74.13
44385;BME280;30101;32.778;34.994;2023-01-30T21:42:18;97095.19;;;10.84;73.93
44385;BME280;30101;32.778;34.994;2023-01-30T21:47:23;97049.88;;;10.77;73.93
44385;BME280;30101;32.778;34.994;2023-01-30T21:52:26;97058.50;;;10.91;74.04
44385;BME280;30101;32.778;34.994;2023-01-30T21:57:31;97040.06;;;11.01;74.65
44385;BME280;30101;32.778;34.994;2023-01-30T22:02:34;97027.41;;;11.08;74.37
44385;BME280;30101;32.778;34.994;2023-01-30T22:07:37;97021.03;;;11.10;74.40
44385;BME280;30101;32.778;34.994;2023-01-30T22:12:40;97027.75;;;11.12;74.01
44385;BME280;30101;32.778;34.994;2023-01-30T22:17:44;97051.09;;;11.17;74.24
44385;BME280;30101;32.778;34.994;2023-01-30T22:22:47;97042.53;;;11.15;74.08
44385;BME280;30101;32.778;34.994;2023-01-30T22:27:51;97046.34;;;11.07;74.25
44385;BME280;30101;32.778;34.994;2023-01-30T22:32:54;97040.41;;;11.05;74.32
44385;BME280;30101;32.778;34.994;2023-01-30T22:37:57;97042.25;;;11.04;74.02
44385;BME280;30101;32.778;34.994;2023-01-30T22:43:01;97023.22;;;11.01;73.88
44385;BME280;30101;32.778;34.994;2023-01-30T22:48:04;97023.31;;;11.06;73.31
44385;BME280;30101;32.778;34.994;2023-01-30T22:53:08;97013.38;;;11.13;73.08
44385;BME280;30101;32.778;34.994;2023-01-30T22:58:11;97003.72;;;11.24;73.08
44385;BME280;30101;32.778;34.994;2023-01-30T23:03:15;97026.03;;;11.41;72.69
44385;BME280;30101;32.778;34.994;2023-01-30T23:08:18;97009.97;;;11.53;72.67
44385;BME280;30101;32.778;34.994;2023-01-30T23:13:21;97022.75;;;11.62;72.50
44385;BME280;30101;32.778;34.994;2023-01-30T23:18:24;97003.56;;;11.66;72.27
44385;BME280;30101;32.778;34.994;2023-01-30T23:23:27;96996.13;;;11.68;72.27
44385;BME280;30101;32.778;34.994;2023-01-30T23:28:31;96983.56;;;11.68;71.98
44385;BME280;30101;32.778;34.994;2023-01-30T23:33:34;97004.75;;;11.70;72.11
44385;BME280;30101;32.778;34.994;2023-01-30T23:38:37;96983.56;;;11.68;71.97
44385;BME280;30101;32.778;34.994;2023-01-30T23:43:43;96995.53;;;11.77;70.52
44385;BME280;30101;32.778;34.994;2023-01-30T23:48:49;96993.00;;;11.82;70.48
44385;BME280;30101;32.778;34.994;2023-01-30T23:53:54;96976.22;;;11.87;70.54
44385;BME280;30101;32.778;34.994;2023-01-30T23:58:58;96964.34;;;11.95;70.22
